Time;durP1;ratioP1;P1;durP2;ratioP2;P2;SDS_P1;SDS_P2;PMS_P1;PMS_P2;Temp;Humidity;BMP_temperature;BMP_pressure;BME280_temperature;BME280_humidity;BME280_pressure;Samples;Min_cycle;Max_cycle;Signal;HPM_P1;HPM_P2
2022/07/15 00:02:07;;;;;;;0.20;0.15;;;15.70;90.30;;;;;;4994039;28;20184;-77
2022/07/15 00:04:34;;;;;;;1.10;0.30;;;15.70;90.70;;;;;;4992054;28;20058;-76
2022/07/15 00:07:00;;;;;;;0.30;0.30;;;15.70;90.80;;;;;;4991492;28;20038;-77
2022/07/15 00:12:11;;;;;;;4.10;0.35;;;15.60;91.50;;;;;;4991531;28;20076;-77
2022/07/15 00:14:38;;;;;;;2.38;0.35;;;15.50;91.80;;;;;;4991058;28;20034;-76
2022/07/15 00:17:06;;;;;;;0.20;0.20;;;15.50;92.10;;;;;;4975085;28;20031;-76
2022/07/15 00:19:32;;;;;;;1.55;0.40;;;15.40;92.30;;;;;;4991047;28;20066;-76
2022/07/15 00:21:57;;;;;;;0.70;0.50;;;15.40;92.60;;;;;;4983259;28;20030;-77
2022/07/15 00:24:22;;;;;;;0.38;0.30;;;15.30;92.70;;;;;;4990220;28;20042;-76
2022/07/15 00:26:48;;;;;;;0.88;0.43;;;15.30;93.10;;;;;;4984714;28;20037;-76
2022/07/15 00:29:14;;;;;;;0.40;0.40;;;15.30;93.20;;;;;;4989422;28;20496;-76
2022/07/15 00:31:39;;;;;;;1.45;0.30;;;15.20;93.40;;;;;;4990301;28;20046;-77
2022/07/15 00:34:04;;;;;;;0.25;0.25;;;15.20;93.50;;;;;;4990434;28;20121;-77
2022/07/15 00:36:30;;;;;;;1.45;0.30;;;15.20;93.70;;;;;;4986193;28;20520;-75
2022/07/15 00:38:56;;;;;;;0.20;0.20;;;15.20;93.70;;;;;;4986227;28;20033;-76
2022/07/15 00:41:21;;;;;;;0.28;0.28;;;15.20;93.90;;;;;;4990262;28;20010;-76
2022/07/15 00:43:46;;;;;;;0.47;0.30;;;15.10;94.10;;;;;;4987926;28;20026;-76
2022/07/15 00:46:20;;;;;;;0.47;0.47;;;15.10;94.20;;;;;;4986803;28;20049;-76
2022/07/15 00:48:46;;;;;;;0.20;0.20;;;15.00;94.90;;;;;;4984202;28;20034;-76
2022/07/15 00:51:11;;;;;;;0.77;0.40;;;15.00;94.70;;;;;;4989952;28;20035;-76
2022/07/15 00:53:38;;;;;;;0.47;0.38;;;15.00;94.70;;;;;;4984263;28;20033;-75
2022/07/15 00:56:08;;;;;;;0.73;0.73;;;15.00;95.00;;;;;;4989848;28;20624;-76
2022/07/15 00:58:37;;;;;;;0.28;0.28;;;14.90;95.00;;;;;;4983299;28;20034;-76
2022/07/15 01:01:03;;;;;;;2.95;0.63;;;14.80;95.70;;;;;;4989805;28;20046;-76
2022/07/15 01:03:31;;;;;;;0.20;0.20;;;14.70;95.90;;;;;;4971600;28;20034;-75
2022/07/15 01:05:58;;;;;;;0.28;0.28;;;14.60;96.30;;;;;;4988070;28;20732;-75
2022/07/15 01:08:24;;;;;;;0.35;0.35;;;14.60;96.50;;;;;;4989605;28;20051;-76
2022/07/15 01:10:50;;;;;;;0.70;0.45;;;14.60;96.80;;;;;;4991257;28;20033;-77
2022/07/15 01:13:18;;;;;;;1.00;0.93;;;14.70;96.80;;;;;;4990437;28;20085;-76
2022/07/15 01:15:43;;;;;;;0.43;0.43;;;14.60;97.40;;;;;;4990247;28;20104;-76
2022/07/15 01:18:09;;;;;;;0.75;0.35;;;14.60;97.50;;;;;;4990112;28;20088;-76
2022/07/15 01:20:39;;;;;;;0.30;0.30;;;14.60;97.50;;;;;;4990603;28;20058;-76
2022/07/15 01:23:04;;;;;;;0.43;0.43;;;14.60;97.80;;;;;;4989556;28;20060;-78
2022/07/15 01:25:30;;;;;;;1.42;0.38;;;14.60;97.80;;;;;;4990506;28;20053;-77
2022/07/15 01:27:55;;;;;;;0.30;0.30;;;14.60;97.90;;;;;;4989820;28;20029;-76
2022/07/15 01:30:21;;;;;;;0.50;0.43;;;14.50;98.40;;;;;;4990201;28;20117;-76
2022/07/15 01:32:46;;;;;;;0.30;0.30;;;14.50;99.00;;;;;;4990348;28;20397;-77
2022/07/15 01:35:12;;;;;;;0.20;0.20;;;14.50;99.00;;;;;;4989500;28;20033;-76
2022/07/15 01:37:37;;;;;;;0.73;0.45;;;14.50;99.40;;;;;;4990067;28;20536;-76
2022/07/15 01:40:05;;;;;;;2.00;0.52;;;14.30;99.90;;;;;;4989051;28;20038;-76
2022/07/15 01:42:30;;;;;;;0.45;0.45;;;14.30;99.90;;;;;;4990209;28;20037;-76
2022/07/15 01:44:56;;;;;;;0.95;0.75;;;14.30;99.90;;;;;;4990369;28;20635;-76
2022/07/15 01:47:21;;;;;;;0.45;0.45;;;14.30;99.90;;;;;;4987510;28;20033;-76
2022/07/15 01:49:47;;;;;;;0.32;0.32;;;14.10;99.90;;;;;;4990216;28;20049;-76
2022/07/15 01:52:12;;;;;;;1.15;0.30;;;14.20;99.90;;;;;;4990232;28;20088;-76
2022/07/15 01:54:38;;;;;;;0.40;0.40;;;14.20;99.90;;;;;;4989510;28;20038;-75
2022/07/15 01:57:04;;;;;;;0.40;0.22;;;14.10;99.90;;;;;;4989913;28;20030;-76
2022/07/15 01:59:29;;;;;;;0.52;0.45;;;14.10;99.90;;;;;;4989150;28;20065;-77
2022/07/15 02:01:57;;;;;;;0.85;0.40;;;14.10;99.90;;;;;;4989817;28;20097;-76
2022/07/15 02:04:23;;;;;;;3.70;0.93;;;14.10;99.90;;;;;;4989218;28;20054;-75
2022/07/15 02:06:49;;;;;;;1.55;0.63;;;14.00;99.90;;;;;;4984679;28;20038;-75
2022/07/15 02:09:15;;;;;;;0.20;0.20;;;14.00;99.90;;;;;;4981147;28;20034;-76
2022/07/15 02:11:41;;;;;;;0.47;0.47;;;14.00;99.90;;;;;;4982236;28;20042;-76
2022/07/15 02:14:06;;;;;;;0.30;0.30;;;14.00;99.90;;;;;;4988033;28;20032;-76
2022/07/15 02:16:33;;;;;;;0.47;0.20;;;14.00;99.90;;;;;;4988978;28;20041;-76
2022/07/15 02:19:00;;;;;;;0.35;0.35;;;13.90;99.90;;;;;;4984879;28;20061;-75
2022/07/15 02:21:26;;;;;;;0.45;0.45;;;13.90;99.90;;;;;;4989529;28;20029;-76
2022/07/15 02:23:55;;;;;;;1.17;0.47;;;13.80;99.90;;;;;;4989810;28;20022;-75
2022/07/15 02:26:21;;;;;;;1.33;0.40;;;13.90;99.90;;;;;;4988026;28;20741;-76
2022/07/15 02:28:46;;;;;;;1.88;0.93;;;13.80;99.90;;;;;;4989608;28;20034;-76
2022/07/15 02:31:12;;;;;;;0.93;0.50;;;13.90;99.90;;;;;;4989364;28;20076;-76
2022/07/15 02:33:38;;;;;;;0.30;0.30;;;13.80;99.90;;;;;;4989936;28;20038;-77
2022/07/15 02:36:04;;;;;;;0.45;0.30;;;13.80;99.90;;;;;;4990144;28;20117;-76
2022/07/15 02:38:29;;;;;;;0.75;0.45;;;13.80;99.90;;;;;;4989391;28;20133;-76
2022/07/15 02:40:55;;;;;;;0.75;0.30;;;13.70;99.90;;;;;;4989127;28;20034;-76
2022/07/15 02:43:21;;;;;;;0.85;0.45;;;13.70;99.90;;;;;;4988510;28;20489;-76
2022/07/15 02:45:47;;;;;;;3.35;0.32;;;13.60;99.90;;;;;;4989968;28;20478;-77
2022/07/15 02:48:12;;;;;;;0.73;0.60;;;13.60;99.90;;;;;;4987409;28;20034;-75
2022/07/15 02:50:38;;;;;;;1.58;0.30;;;13.60;99.90;;;;;;4987872;28;20224;-77
2022/07/15 02:53:04;;;;;;;1.10;0.47;;;13.60;99.90;;;;;;4989026;28;20121;-76
2022/07/15 02:55:30;;;;;;;1.38;0.43;;;13.70;99.90;;;;;;4988062;28;20571;-77
2022/07/15 02:57:56;;;;;;;0.40;0.40;;;13.70;99.90;;;;;;4989445;28;20102;-76
2022/07/15 03:00:21;;;;;;;0.30;0.30;;;13.60;99.90;;;;;;4988908;28;20019;-76
2022/07/15 03:02:47;;;;;;;0.60;0.40;;;13.50;99.90;;;;;;4988404;28;20497;-76
2022/07/15 03:05:14;;;;;;;0.30;0.30;;;13.50;99.90;;;;;;4988664;28;20405;-76
2022/07/15 03:07:40;;;;;;;0.75;0.70;;;13.50;99.90;;;;;;4988953;28;20548;-76
2022/07/15 03:10:07;;;;;;;0.85;0.43;;;13.50;99.90;;;;;;4988093;28;20034;-76
2022/07/15 03:12:32;;;;;;;1.02;0.50;;;13.50;99.90;;;;;;4988817;28;20709;-77
2022/07/15 03:14:59;;;;;;;1.05;0.47;;;13.40;99.90;;;;;;4989203;28;20034;-76
2022/07/15 03:17:25;;;;;;;1.55;0.50;;;13.40;99.90;;;;;;4987668;28;20026;-77
2022/07/15 03:19:50;;;;;;;0.55;0.55;;;13.40;99.90;;;;;;4970500;28;20045;-76
2022/07/15 03:22:16;;;;;;;0.25;0.25;;;13.50;99.90;;;;;;4991694;28;20033;-76
2022/07/15 03:24:41;;;;;;;0.80;0.63;;;13.50;99.90;;;;;;4996892;28;20022;-77
2022/07/15 03:27:08;;;;;;;1.17;0.80;;;13.40;99.90;;;;;;4992982;28;20032;-78
2022/07/15 03:29:34;;;;;;;0.95;0.50;;;13.40;99.90;;;;;;4992276;28;20038;-76
2022/07/15 03:31:59;;;;;;;0.50;0.50;;;13.40;99.90;;;;;;4992362;28;20030;-77
2022/07/15 03:34:25;;;;;;;1.02;0.70;;;13.50;99.90;;;;;;4992667;28;20385;-76
2022/07/15 03:36:51;;;;;;;1.95;0.73;;;13.40;99.90;;;;;;4991961;28;20073;-77
2022/07/15 03:39:16;;;;;;;0.75;0.75;;;13.40;99.90;;;;;;4991295;28;20034;-76
2022/07/15 03:41:42;;;;;;;0.55;0.28;;;13.30;99.90;;;;;;4989624;28;20018;-77
2022/07/15 03:44:07;;;;;;;0.55;0.35;;;13.40;99.90;;;;;;4992779;28;20029;-76
2022/07/15 03:46:33;;;;;;;0.40;0.40;;;13.40;99.90;;;;;;4991369;28;20662;-77
2022/07/15 03:49:00;;;;;;;1.88;0.30;;;13.40;99.90;;;;;;4992685;28;20038;-77
2022/07/15 03:51:30;;;;;;;0.43;0.40;;;13.40;99.90;;;;;;4992621;28;20051;-78
2022/07/15 03:54:02;;;;;;;0.32;0.32;;;13.50;99.90;;;;;;4992759;28;20026;-76
2022/07/15 03:56:29;;;;;;;1.90;0.47;;;13.70;99.90;;;;;;4992571;28;20072;-77
2022/07/15 03:58:55;;;;;;;0.65;0.35;;;13.80;99.90;;;;;;4979669;28;20485;-77
2022/07/15 04:01:21;;;;;;;0.38;0.38;;;13.80;99.90;;;;;;4990988;28;20108;-78
2022/07/15 04:03:48;;;;;;;0.20;0.20;;;13.90;99.90;;;;;;4992417;28;20044;-77
2022/07/15 04:06:15;;;;;;;0.32;0.30;;;14.00;99.90;;;;;;4974672;28;20022;-77
2022/07/15 04:08:41;;;;;;;1.50;0.80;;;14.10;99.90;;;;;;4992062;28;20030;-77
2022/07/15 04:11:06;;;;;;;1.55;0.82;;;14.10;99.90;;;;;;4991250;28;20073;-76
2022/07/15 04:13:31;;;;;;;1.85;0.73;;;14.30;99.90;;;;;;4990754;28;20033;-77
2022/07/15 04:15:57;;;;;;;1.35;0.85;;;14.30;99.90;;;;;;4986839;28;20497;-76
2022/07/15 04:18:23;;;;;;;1.25;0.40;;;14.20;99.90;;;;;;4974145;28;20031;-77
2022/07/15 04:20:48;;;;;;;1.20;0.38;;;14.20;99.90;;;;;;4985241;28;20026;-77
2022/07/15 04:23:14;;;;;;;1.60;0.98;;;14.30;99.90;;;;;;4984841;28;20046;-77
2022/07/15 04:25:40;;;;;;;1.15;0.50;;;14.30;99.90;;;;;;4991521;28;20030;-78
2022/07/15 04:28:05;;;;;;;0.38;0.38;;;14.20;99.90;;;;;;4992189;28;20073;-77
2022/07/15 04:30:31;;;;;;;1.95;0.65;;;14.30;99.90;;;;;;4991864;28;20393;-77
2022/07/15 04:32:56;;;;;;;0.85;0.60;;;14.20;99.90;;;;;;4991063;28;20669;-77
2022/07/15 04:35:22;;;;;;;0.35;0.35;;;14.10;99.90;;;;;;4990278;28;20473;-77
2022/07/15 04:37:47;;;;;;;0.70;0.60;;;14.10;99.90;;;;;;4991148;28;20506;-78
2022/07/15 04:40:13;;;;;;;1.80;0.70;;;14.20;99.90;;;;;;4990368;28;20455;-77
2022/07/15 04:42:38;;;;;;;2.17;0.60;;;14.20;99.90;;;;;;4991334;28;20034;-76
2022/07/15 04:45:04;;;;;;;0.30;0.25;;;14.30;99.90;;;;;;4990749;28;20031;-76
2022/07/15 04:47:29;;;;;;;0.50;0.50;;;14.30;99.90;;;;;;4988289;28;20034;-76
2022/07/15 04:52:44;;;;;;;2.22;0.98;;;14.40;99.90;;;;;;4991238;28;20690;-77
2022/07/15 04:55:09;;;;;;;0.70;0.47;;;14.50;99.90;;;;;;4990580;28;20093;-77
2022/07/15 04:57:35;;;;;;;0.80;0.35;;;14.50;99.90;;;;;;4988890;28;20070;-76
2022/07/15 05:00:00;;;;;;;0.47;0.45;;;14.50;99.90;;;;;;4990641;28;20497;-76
2022/07/15 05:02:26;;;;;;;0.90;0.75;;;14.50;99.90;;;;;;4990441;28;20030;-75
2022/07/15 05:04:51;;;;;;;5.05;0.77;;;14.50;99.90;;;;;;4991405;28;20169;-77
2022/07/15 05:07:17;;;;;;;0.65;0.35;;;14.50;99.90;;;;;;4988764;28;20022;-76
2022/07/15 05:09:43;;;;;;;2.83;0.40;;;14.50;99.90;;;;;;4990487;28;20457;-76
2022/07/15 05:12:08;;;;;;;0.73;0.45;;;14.40;99.90;;;;;;4988444;28;20123;-77
2022/07/15 05:14:34;;;;;;;1.60;0.63;;;14.20;99.90;;;;;;4988654;28;20036;-77
2022/07/15 05:17:00;;;;;;;0.90;0.57;;;14.20;99.90;;;;;;4978644;28;20034;-76
2022/07/15 05:19:25;;;;;;;0.47;0.47;;;14.30;99.90;;;;;;4986832;28;20049;-76
2022/07/15 05:21:51;;;;;;;0.85;0.60;;;14.30;99.90;;;;;;4985569;28;20023;-76
2022/07/15 05:24:18;;;;;;;1.15;0.80;;;14.30;99.90;;;;;;4984562;28;20567;-75
2022/07/15 05:26:44;;;;;;;0.52;0.40;;;14.40;99.90;;;;;;4983784;28;20022;-76
2022/07/15 05:29:09;;;;;;;4.40;0.65;;;14.40;99.90;;;;;;4985212;28;20041;-77
2022/07/15 05:31:35;;;;;;;3.38;0.30;;;14.30;99.90;;;;;;4986071;28;20544;-76
2022/07/15 05:34:00;;;;;;;0.57;0.43;;;14.30;99.90;;;;;;4987790;28;20080;-76
2022/07/15 05:36:26;;;;;;;2.08;0.80;;;14.30;99.90;;;;;;4982284;28;20039;-77
2022/07/15 05:38:52;;;;;;;1.88;0.32;;;14.40;99.90;;;;;;4988120;28;20125;-76
2022/07/15 05:41:18;;;;;;;0.70;0.45;;;14.50;99.90;;;;;;4985605;28;20034;-77
2022/07/15 05:43:43;;;;;;;0.40;0.40;;;14.60;99.90;;;;;;4981396;28;20385;-76
2022/07/15 05:46:09;;;;;;;1.35;0.32;;;14.70;99.90;;;;;;4982524;28;20103;-79
2022/07/15 05:48:35;;;;;;;0.28;0.28;;;14.60;99.90;;;;;;4985977;28;20114;-79
2022/07/15 05:51:00;;;;;;;0.45;0.45;;;14.70;99.90;;;;;;4983397;28;20022;-78
2022/07/15 05:53:26;;;;;;;1.38;1.15;;;14.80;99.90;;;;;;4979241;28;20045;-80
2022/07/15 05:55:52;;;;;;;0.45;0.43;;;14.90;99.90;;;;;;4981977;28;20046;-79
2022/07/15 05:58:18;;;;;;;0.65;0.30;;;14.90;99.90;;;;;;4985338;28;20053;-78
2022/07/15 06:00:44;;;;;;;0.52;0.52;;;15.10;99.90;;;;;;4984861;28;20116;-79
2022/07/15 06:03:09;;;;;;;1.67;0.60;;;15.20;99.90;;;;;;4982072;28;20045;-79
2022/07/15 06:05:35;;;;;;;0.38;0.38;;;15.40;99.90;;;;;;4984925;28;20489;-77
2022/07/15 06:08:07;;;;;;;0.30;0.30;;;15.60;99.90;;;;;;4984523;28;20053;-77
2022/07/15 06:10:33;;;;;;;0.50;0.40;;;15.80;99.40;;;;;;4982253;28;20121;-76
2022/07/15 06:12:59;;;;;;;1.40;0.25;;;16.00;98.40;;;;;;4984314;28;20497;-75
2022/07/15 06:15:24;;;;;;;0.98;0.32;;;15.90;97.40;;;;;;4986933;28;20366;-75
2022/07/15 06:17:50;;;;;;;4.72;1.55;;;16.00;97.90;;;;;;4979135;28;20030;-74
2022/07/15 06:20:16;;;;;;;3.00;0.50;;;16.10;97.30;;;;;;4984303;28;20050;-74
2022/07/15 06:22:41;;;;;;;0.40;0.40;;;16.20;97.20;;;;;;4987315;28;20026;-73
2022/07/15 06:25:08;;;;;;;0.52;0.30;;;16.30;96.80;;;;;;4983284;28;20111;-74
2022/07/15 06:27:34;;;;;;;0.68;0.50;;;16.30;96.40;;;;;;4983820;28;20034;-74
2022/07/15 06:30:00;;;;;;;0.50;0.20;;;16.30;96.10;;;;;;4987947;28;20040;-74
2022/07/15 06:32:25;;;;;;;1.90;0.43;;;16.50;95.80;;;;;;4979274;28;20148;-74
2022/07/15 06:34:51;;;;;;;0.82;0.20;;;16.50;94.80;;;;;;4978198;28;20392;-74
2022/07/15 06:37:17;;;;;;;1.05;0.40;;;16.60;94.80;;;;;;4981558;28;20053;-74
2022/07/15 06:39:42;;;;;;;1.08;0.60;;;16.70;94.10;;;;;;4987620;28;20433;-73
2022/07/15 06:42:08;;;;;;;0.20;0.20;;;16.70;94.20;;;;;;4984233;28;20070;-74
2022/07/15 06:44:34;;;;;;;5.35;0.77;;;16.40;94.20;;;;;;4983685;28;20073;-74
2022/07/15 06:46:59;;;;;;;1.10;0.15;;;16.30;94.40;;;;;;4984453;28;20030;-73
2022/07/15 06:49:24;;;;;;;0.40;0.40;;;16.20;95.20;;;;;;4982988;28;20486;-74
2022/07/15 06:51:51;;;;;;;1.00;0.45;;;16.40;94.90;;;;;;4980294;28;20658;-75
2022/07/15 06:54:18;;;;;;;0.30;0.20;;;16.20;95.30;;;;;;4980559;28;20108;-75
2022/07/15 06:56:44;;;;;;;1.38;0.50;;;16.20;94.50;;;;;;4988023;28;20392;-75
2022/07/15 06:59:09;;;;;;;1.17;0.30;;;16.40;94.90;;;;;;4989876;28;20030;-75
2022/07/15 07:01:35;;;;;;;3.58;1.23;;;16.50;94.20;;;;;;4996580;28;20077;-75
2022/07/15 07:04:00;;;;;;;1.27;0.45;;;16.60;94.10;;;;;;4991725;28;20026;-73
2022/07/15 07:06:26;;;;;;;0.45;0.38;;;16.50;93.10;;;;;;4992429;28;20026;-74
2022/07/15 07:08:52;;;;;;;1.55;1.13;;;16.50;93.20;;;;;;4982187;28;20060;-75
2022/07/15 07:11:18;;;;;;;2.65;0.63;;;16.70;92.80;;;;;;4986977;28;20883;-75
2022/07/15 07:13:44;;;;;;;0.20;0.20;;;16.90;92.00;;;;;;4988420;28;20032;-75
2022/07/15 07:16:09;;;;;;;0.15;0.15;;;17.10;90.50;;;;;;4986289;28;20117;-75
2022/07/15 07:18:35;;;;;;;3.17;0.30;;;17.00;90.00;;;;;;4983584;28;20088;-75
2022/07/15 07:21:01;;;;;;;0.73;0.40;;;17.10;90.20;;;;;;4984658;28;20031;-74
2022/07/15 07:23:27;;;;;;;0.10;0.10;;;17.20;90.20;;;;;;4984431;28;20031;-74
2022/07/15 07:25:53;;;;;;;0.20;0.17;;;17.40;90.10;;;;;;4985590;28;20031;-75
2022/07/15 07:28:19;;;;;;;4.78;1.00;;;17.50;87.90;;;;;;4986291;28;20125;-75
2022/07/15 07:30:46;;;;;;;2.88;0.30;;;17.20;85.50;;;;;;4986198;28;20109;-75
2022/07/15 07:33:14;;;;;;;2.42;0.57;;;17.10;87.00;;;;;;4986378;28;20561;-75
2022/07/15 07:35:40;;;;;;;0.25;0.25;;;17.10;86.20;;;;;;4986131;28;20121;-74
2022/07/15 07:38:05;;;;;;;0.20;0.10;;;17.20;84.90;;;;;;4982405;28;20560;-75
2022/07/15 07:40:31;;;;;;;0.82;0.20;;;17.30;86.90;;;;;;4984422;28;20037;-74
2022/07/15 07:42:56;;;;;;;0.57;0.47;;;17.40;85.20;;;;;;4985749;28;20113;-75
2022/07/15 07:45:23;;;;;;;0.35;0.20;;;17.40;85.10;;;;;;4981505;28;20045;-75
2022/07/15 07:47:48;;;;;;;0.63;0.40;;;17.40;83.40;;;;;;4983371;28;20363;-74
2022/07/15 07:50:14;;;;;;;0.22;0.13;;;17.50;83.60;;;;;;4984358;28;20034;-74
2022/07/15 07:52:39;;;;;;;0.40;0.30;;;17.80;82.80;;;;;;4982264;28;20030;-74
2022/07/15 07:55:05;;;;;;;1.25;0.35;;;17.70;81.40;;;;;;4984684;28;20028;-74
2022/07/15 07:57:32;;;;;;;4.00;0.50;;;17.70;80.60;;;;;;4984866;28;20044;-80
2022/07/15 07:59:58;;;;;;;0.20;0.20;;;17.90;80.40;;;;;;4988050;28;20027;-77
2022/07/15 08:02:24;;;;;;;0.38;0.38;;;17.90;80.70;;;;;;4984923;28;20069;-76
2022/07/15 08:04:49;;;;;;;0.10;0.10;;;18.00;80.10;;;;;;4987926;28;20034;-77
2022/07/15 08:07:15;;;;;;;2.72;0.40;;;18.10;79.50;;;;;;4985465;28;20038;-78
2022/07/15 08:09:40;;;;;;;0.45;0.10;;;18.10;79.20;;;;;;4988226;28;20057;-77
2022/07/15 08:12:07;;;;;;;3.53;0.50;;;18.00;79.60;;;;;;4987983;28;20037;-77
2022/07/15 08:14:33;;;;;;;2.15;0.22;;;18.00;78.60;;;;;;4985070;28;20033;-76
2022/07/15 08:16:58;;;;;;;0.10;0.10;;;17.90;78.60;;;;;;4984123;28;20027;-78
2022/07/15 08:19:24;;;;;;;1.80;0.50;;;17.90;78.50;;;;;;4988115;28;20026;-75
2022/07/15 08:21:50;;;;;;;0.93;0.70;;;17.60;76.10;;;;;;4986384;28;20092;-76
2022/07/15 08:24:16;;;;;;;0.30;0.30;;;17.30;76.90;;;;;;4984678;28;20053;-76
2022/07/15 08:26:42;;;;;;;2.70;0.70;;;17.20;78.30;;;;;;4982706;28;20033;-77
2022/07/15 08:29:08;;;;;;;5.28;0.95;;;17.50;79.20;;;;;;4983145;28;20038;-77
2022/07/15 08:31:35;;;;;;;0.20;0.20;;;17.70;75.70;;;;;;4984417;28;20031;-77
2022/07/15 08:34:01;;;;;;;0.20;0.20;;;18.10;76.60;;;;;;4981336;28;20038;-77
2022/07/15 08:36:26;;;;;;;1.88;0.47;;;18.40;74.40;;;;;;4986230;28;20033;-77
2022/07/15 08:38:52;;;;;;;1.55;0.73;;;18.50;72.90;;;;;;4985990;28;20035;-78
2022/07/15 08:41:18;;;;;;;0.50;0.30;;;18.60;72.10;;;;;;4984353;28;20035;-78
2022/07/15 08:43:44;;;;;;;0.25;0.25;;;18.60;70.10;;;;;;4986511;28;20108;-76
2022/07/15 08:46:10;;;;;;;1.65;0.40;;;18.80;72.40;;;;;;4980330;28;20121;-78
2022/07/15 08:48:37;;;;;;;0.38;0.25;;;18.70;68.50;;;;;;4985658;28;20176;-77
2022/07/15 08:51:07;;;;;;;0.13;0.13;;;18.80;73.80;;;;;;4983479;28;20119;-77
2022/07/15 08:53:33;;;;;;;0.57;0.20;;;19.10;70.40;;;;;;4987169;28;20053;-78
2022/07/15 08:56:00;;;;;;;0.40;0.15;;;19.20;70.70;;;;;;4987397;28;20089;-77
2022/07/15 08:58:26;;;;;;;0.20;0.20;;;18.90;68.40;;;;;;4984305;28;20026;-77
2022/07/15 09:00:52;;;;;;;0.77;0.30;;;18.70;69.10;;;;;;4988432;28;20100;-76
2022/07/15 09:03:17;;;;;;;2.30;0.63;;;18.30;70.90;;;;;;4987406;28;20034;-79
2022/07/15 09:05:43;;;;;;;0.20;0.20;;;18.30;71.90;;;;;;4986865;28;20084;-79
2022/07/15 09:08:14;;;;;;;0.10;0.10;;;18.40;71.50;;;;;;4980886;28;20483;-81
2022/07/15 09:10:50;;;;;;;0.17;0.17;;;18.80;69.40;;;;;;4984183;28;20801;-80
2022/07/15 09:13:32;;;;;;;0.55;0.20;;;18.80;68.00;;;;;;4980086;28;20160;-79
2022/07/15 09:16:04;;;;;;;0.30;0.30;;;18.70;69.40;;;;;;4983714;28;20226;-80
2022/07/15 09:18:36;;;;;;;1.92;1.13;;;18.60;69.30;;;;;;4985184;28;20037;-79
2022/07/15 09:21:02;;;;;;;0.30;0.30;;;18.30;69.50;;;;;;4984726;28;20470;-82
2022/07/15 09:23:29;;;;;;;0.68;0.40;;;18.30;70.70;;;;;;4986701;28;20065;-79
2022/07/15 09:25:59;;;;;;;3.20;0.50;;;18.30;71.20;;;;;;4985010;28;20026;-79
2022/07/15 09:28:41;;;;;;;0.47;0.30;;;18.30;73.00;;;;;;4983678;28;20026;-80
2022/07/15 09:34:00;;;;;;;0.43;0.40;;;18.10;72.40;;;;;;4987383;28;20051;-78
2022/07/15 09:36:31;;;;;;;0.43;0.40;;;18.50;72.30;;;;;;4984228;28;20497;-79
2022/07/15 09:39:04;;;;;;;1.52;0.30;;;18.70;72.10;;;;;;4985767;28;20046;-80
2022/07/15 09:41:42;;;;;;;0.55;0.20;;;18.90;70.30;;;;;;4983002;28;20489;-80
2022/07/15 09:44:17;;;;;;;0.35;0.20;;;19.30;69.80;;;;;;4985050;28;20149;-80
2022/07/15 09:46:49;;;;;;;0.30;0.20;;;19.60;69.60;;;;;;4986426;28;20101;-78
2022/07/15 09:49:24;;;;;;;1.20;0.30;;;19.50;66.80;;;;;;4984612;28;20030;-80
2022/07/15 09:51:56;;;;;;;0.52;0.30;;;19.30;66.70;;;;;;4981932;28;20151;-80
2022/07/15 09:54:30;;;;;;;0.10;0.10;;;19.10;67.40;;;;;;4986574;28;20037;-80
2022/07/15 09:57:01;;;;;;;1.13;0.35;;;19.00;67.00;;;;;;4984207;28;20026;-80
2022/07/15 09:59:29;;;;;;;2.60;0.38;;;19.30;66.30;;;;;;4986172;28;20085;-80
2022/07/15 10:01:55;;;;;;;0.85;0.60;;;19.60;67.00;;;;;;4983962;28;20026;-81
2022/07/15 10:04:23;;;;;;;2.17;0.30;;;19.90;65.40;;;;;;4985749;28;20031;-80
2022/07/15 10:06:50;;;;;;;0.20;0.20;;;20.30;65.20;;;;;;4981389;28;20031;-80
2022/07/15 10:09:22;;;;;;;0.38;0.30;;;20.40;62.00;;;;;;4983661;28;20137;-76
2022/07/15 10:11:52;;;;;;;0.20;0.20;;;20.20;62.20;;;;;;4984345;28;20093;-77
2022/07/15 10:14:37;;;;;;;0.63;0.38;;;20.10;62.60;;;;;;4988878;28;20040;-79
2022/07/15 10:17:39;;;;;;;2.92;0.50;;;20.00;60.70;;;;;;4979317;28;20073;-79
2022/07/15 10:20:30;;;;;;;0.55;0.40;;;19.80;62.30;;;;;;4983868;28;20454;-73
2022/07/15 10:23:05;;;;;;;0.20;0.20;;;20.00;62.70;;;;;;4982267;28;20034;-72
2022/07/15 10:25:48;;;;;;;0.50;0.28;;;20.20;62.30;;;;;;4982452;28;20482;-73
2022/07/15 10:28:19;;;;;;;0.40;0.20;;;20.10;61.70;;;;;;4989401;28;20043;-73
2022/07/15 10:30:45;;;;;;;;;;;20.10;61.70;;;;;;4985948;28;20718;-73
2022/07/15 10:33:16;;;;;;;2.92;0.52;;;20.00;61.60;;;;;;4992678;28;20021;-73
2022/07/15 10:35:49;;;;;;;;;;;19.60;62.40;;;;;;4992939;28;20030;-74
2022/07/15 10:38:28;;;;;;;0.55;0.40;;;19.20;63.20;;;;;;4991101;28;20293;-74
2022/07/15 10:41:10;;;;;;;0.35;0.28;;;19.00;65.30;;;;;;4990563;28;20030;-73
2022/07/15 10:43:50;;;;;;;0.88;0.52;;;19.20;64.50;;;;;;4988944;28;20022;-73
2022/07/15 10:46:15;;;;;;;0.20;0.20;;;19.30;63.20;;;;;;4988919;28;20058;-73
2022/07/15 10:48:42;;;;;;;1.80;0.25;;;19.50;63.90;;;;;;4990666;28;20524;-72
2022/07/15 10:51:07;;;;;;;2.75;0.10;;;19.70;62.10;;;;;;4986903;28;20117;-72
2022/07/15 10:53:46;;;;;;;0.13;0.13;;;20.00;61.50;;;;;;4991188;28;20105;-72
2022/07/15 10:56:40;;;;;;;0.45;0.28;;;20.30;60.80;;;;;;4990318;28;20026;-73
2022/07/15 10:59:09;;;;;;;0.22;0.20;;;20.40;58.90;;;;;;4991527;28;20577;-73
2022/07/15 11:01:35;;;;;;;2.03;0.47;;;20.80;60.00;;;;;;4991475;28;20022;-73
2022/07/15 11:04:19;;;;;;;0.32;0.20;;;21.30;58.10;;;;;;4990148;28;20027;-73
2022/07/15 11:07:03;;;;;;;0.30;0.30;;;20.90;57.40;;;;;;4990205;28;20068;-73
2022/07/15 11:10:02;;;;;;;0.93;0.43;;;20.90;58.10;;;;;;4982117;28;20564;-74
2022/07/15 11:12:27;;;;;;;0.20;0.20;;;20.90;58.40;;;;;;4985992;28;20038;-73
2022/07/15 11:14:55;;;;;;;0.20;0.20;;;21.10;59.10;;;;;;4987804;28;20105;-73
2022/07/15 11:17:25;;;;;;;0.80;0.50;;;21.30;57.20;;;;;;4991779;28;20060;-73
2022/07/15 11:19:53;;;;;;;1.15;0.38;;;21.30;56.30;;;;;;4991842;28;20209;-74
2022/07/15 11:22:20;;;;;;;0.20;0.20;;;21.50;57.00;;;;;;4991506;28;20061;-74
2022/07/15 11:24:46;;;;;;;0.55;0.25;;;21.50;57.40;;;;;;4989549;28;20019;-74
2022/07/15 11:27:12;;;;;;;1.48;0.30;;;21.70;55.70;;;;;;4991999;28;20524;-75
2022/07/15 11:29:45;;;;;;;2.92;0.65;;;21.90;58.40;;;;;;4992046;28;20399;-74
2022/07/15 11:32:13;;;;;;;0.82;0.20;;;22.10;55.50;;;;;;4992167;28;20165;-73
2022/07/15 11:34:41;;;;;;;2.30;0.50;;;21.80;54.70;;;;;;4991087;28;20401;-74
2022/07/15 11:37:06;;;;;;;0.68;0.40;;;21.50;55.00;;;;;;4991542;28;20513;-74
2022/07/15 11:39:32;;;;;;;0.20;0.20;;;21.60;55.30;;;;;;4991678;28;20117;-74
2022/07/15 11:44:50;;;;;;;0.40;0.40;;;21.90;56.30;;;;;;4991013;28;20554;-73
2022/07/15 11:47:15;;;;;;;0.35;0.20;;;21.60;56.70;;;;;;4991398;28;20030;-74
2022/07/15 11:49:44;;;;;;;0.22;0.20;;;21.30;56.60;;;;;;4991727;28;20027;-74
2022/07/15 11:52:12;;;;;;;0.45;0.35;;;21.00;59.00;;;;;;4991533;28;20474;-73
2022/07/15 11:54:40;;;;;;;0.68;0.50;;;20.80;57.90;;;;;;4990857;28;20069;-73
2022/07/15 11:57:11;;;;;;;0.68;0.28;;;20.50;58.80;;;;;;4991101;28;20038;-74
2022/07/15 11:59:37;;;;;;;2.58;0.80;;;20.60;59.80;;;;;;4990534;28;20482;-74
2022/07/15 12:02:05;;;;;;;0.98;0.50;;;20.90;59.50;;;;;;4990503;28;20053;-74
2022/07/15 12:04:31;;;;;;;0.60;0.30;;;20.90;59.00;;;;;;4990184;28;20061;-73
2022/07/15 12:06:56;;;;;;;0.95;0.57;;;20.70;58.30;;;;;;4990154;28;20050;-74
2022/07/15 12:09:22;;;;;;;0.13;0.10;;;20.90;57.90;;;;;;4991124;28;20073;-74
2022/07/15 12:11:47;;;;;;;0.40;0.20;;;21.20;57.90;;;;;;4991256;28;20023;-75
2022/07/15 12:14:19;;;;;;;1.00;0.60;;;21.20;57.10;;;;;;4989702;28;20053;-75
2022/07/15 12:16:50;;;;;;;0.28;0.25;;;21.30;55.90;;;;;;4978813;28;20045;-76
2022/07/15 12:19:21;;;;;;;1.45;0.20;;;21.30;54.70;;;;;;4990712;28;20261;-76
2022/07/15 12:21:50;;;;;;;0.25;0.20;;;21.50;53.50;;;;;;4990748;28;20025;-75
2022/07/15 12:24:21;;;;;;;0.20;0.20;;;21.80;53.80;;;;;;4990877;28;20230;-76
2022/07/15 12:26:49;;;;;;;0.22;0.22;;;22.20;54.80;;;;;;4989475;28;20026;-73
2022/07/15 12:29:16;;;;;;;0.63;0.22;;;22.30;54.10;;;;;;4990476;28;20034;-74
2022/07/15 12:31:43;;;;;;;0.28;0.20;;;21.90;53.70;;;;;;4990556;28;20113;-74
2022/07/15 12:34:09;;;;;;;2.42;1.00;;;21.20;55.00;;;;;;4990145;28;20030;-74
2022/07/15 12:36:37;;;;;;;0.10;0.10;;;20.80;56.60;;;;;;4990608;28;20030;-75
2022/07/15 12:39:11;;;;;;;0.52;0.30;;;21.20;58.30;;;;;;4989300;28;20069;-82
2022/07/15 12:41:39;;;;;;;0.70;0.28;;;21.40;56.60;;;;;;4991527;28;20022;-88
2022/07/15 12:44:06;;;;;;;0.40;0.35;;;21.80;57.40;;;;;;4989777;28;20030;-86
2022/07/15 12:46:48;;;;;;;0.20;0.20;;;22.60;56.00;;;;;;4990595;28;20050;-86
2022/07/15 12:49:44;;;;;;;0.50;0.30;;;23.30;52.90;;;;;;4985228;28;20101;-88
2022/07/15 12:52:23;;;;;;;0.13;0.13;;;23.80;52.30;;;;;;4990014;28;20435;-89
2022/07/15 12:54:51;;;;;;;0.30;0.25;;;24.50;51.00;;;;;;4990001;28;20061;-88
2022/07/15 12:57:27;;;;;;;0.30;0.30;;;24.70;49.30;;;;;;4990152;28;20556;-75
2022/07/15 13:00:48;;;;;;;0.93;0.40;;;25.10;51.00;;;;;;4989598;28;20765;-77
2022/07/15 13:03:16;;;;;;;0.30;0.30;;;24.90;49.50;;;;;;4885012;29;20098;-74